sensor_id;sensor_type;location;lat;lon;timestamp;P1;durP1;ratioP1;P2;durP2;ratioP2
19810;SDS011;10065;49.632;8.346;2022-09-28T00:00:33;2.67;;;1.40;;
19810;SDS011;10065;49.632;8.346;2022-09-28T00:03:00;2.40;;;1.30;;
19810;SDS011;10065;49.632;8.346;2022-09-28T00:05:28;5.33;;;1.30;;
19810;SDS011;10065;49.632;8.346;2022-09-28T00:07:57;4.67;;;1.50;;
19810;SDS011;10065;49.632;8.346;2022-09-28T00:10:25;4.47;;;1.60;;
19810;SDS011;10065;49.632;8.346;2022-09-28T00:12:52;5.30;;;1.80;;
19810;SDS011;10065;49.632;8.346;2022-09-28T00:15:21;4.70;;;1.63;;
19810;SDS011;10065;49.632;8.346;2022-09-28T00:17:49;3.03;;;1.60;;
19810;SDS011;10065;49.632;8.346;2022-09-28T00:20:17;4.30;;;1.70;;
19810;SDS011;10065;49.632;8.346;2022-09-28T00:22:45;4.00;;;1.90;;
19810;SDS011;10065;49.632;8.346;2022-09-28T00:25:14;4.30;;;1.60;;
19810;SDS011;10065;49.632;8.346;2022-09-28T00:27:48;5.23;;;1.73;;
19810;SDS011;10065;49.632;8.346;2022-09-28T00:30:16;4.13;;;1.60;;
19810;SDS011;10065;49.632;8.346;2022-09-28T00:32:43;4.13;;;1.73;;
19810;SDS011;10065;49.632;8.346;2022-09-28T00:35:11;6.50;;;1.70;;
19810;SDS011;10065;49.632;8.346;2022-09-28T00:37:38;5.93;;;1.77;;
19810;SDS011;10065;49.632;8.346;2022-09-28T00:40:06;5.43;;;1.77;;
19810;SDS011;10065;49.632;8.346;2022-09-28T00:42:36;5.80;;;2.27;;
19810;SDS011;10065;49.632;8.346;2022-09-28T00:45:04;5.07;;;1.77;;
19810;SDS011;10065;49.632;8.346;2022-09-28T00:47:36;6.50;;;1.50;;
19810;SDS011;10065;49.632;8.346;2022-09-28T00:50:13;5.17;;;1.43;;
19810;SDS011;10065;49.632;8.346;2022-09-28T00:52:50;6.03;;;1.73;;
19810;SDS011;10065;49.632;8.346;2022-09-28T00:55:24;3.63;;;1.30;;
19810;SDS011;10065;49.632;8.346;2022-09-28T00:57:59;3.33;;;1.30;;
19810;SDS011;10065;49.632;8.346;2022-09-28T01:00:30;3.97;;;1.30;;
19810;SDS011;10065;49.632;8.346;2022-09-28T01:02:58;2.60;;;1.30;;
19810;SDS011;10065;49.632;8.346;2022-09-28T01:05:25;2.97;;;1.27;;
19810;SDS011;10065;49.632;8.346;2022-09-28T01:07:54;6.43;;;1.43;;
19810;SDS011;10065;49.632;8.346;2022-09-28T01:10:22;3.27;;;1.30;;
19810;SDS011;10065;49.632;8.346;2022-09-28T01:12:51;3.03;;;1.20;;
19810;SDS011;10065;49.632;8.346;2022-09-28T01:15:20;4.97;;;1.53;;
19810;SDS011;10065;49.632;8.346;2022-09-28T01:17:53;4.73;;;1.20;;
19810;SDS011;10065;49.632;8.346;2022-09-28T01:20:48;3.07;;;1.03;;
19810;SDS011;10065;49.632;8.346;2022-09-28T01:26:55;2.47;;;0.90;;
19810;SDS011;10065;49.632;8.346;2022-09-28T01:29:33;2.97;;;1.10;;
19810;SDS011;10065;49.632;8.346;2022-09-28T01:32:14;3.53;;;1.40;;
19810;SDS011;10065;49.632;8.346;2022-09-28T01:34:52;3.13;;;1.17;;
19810;SDS011;10065;49.632;8.346;2022-09-28T01:37:27;3.27;;;1.27;;
19810;SDS011;10065;49.632;8.346;2022-09-28T01:40:02;2.90;;;0.90;;
19810;SDS011;10065;49.632;8.346;2022-09-28T01:42:35;1.57;;;0.70;;
19810;SDS011;10065;49.632;8.346;2022-09-28T01:45:06;2.67;;;0.90;;
19810;SDS011;10065;49.632;8.346;2022-09-28T01:47:40;4.20;;;0.90;;
19810;SDS011;10065;49.632;8.346;2022-09-28T01:50:13;3.80;;;1.07;;
19810;SDS011;10065;49.632;8.346;2022-09-28T01:52:44;4.50;;;1.00;;
19810;SDS011;10065;49.632;8.346;2022-09-28T01:55:18;3.73;;;1.03;;
19810;SDS011;10065;49.632;8.346;2022-09-28T01:57:54;5.03;;;1.10;;
19810;SDS011;10065;49.632;8.346;2022-09-28T02:00:24;3.73;;;0.90;;
19810;SDS011;10065;49.632;8.346;2022-09-28T02:02:54;2.33;;;0.90;;
19810;SDS011;10065;49.632;8.346;2022-09-28T02:05:28;1.67;;;0.73;;
19810;SDS011;10065;49.632;8.346;2022-09-28T02:08:01;1.57;;;0.60;;
19810;SDS011;10065;49.632;8.346;2022-09-28T02:10:32;2.57;;;1.10;;
19810;SDS011;10065;49.632;8.346;2022-09-28T02:13:07;2.03;;;0.70;;
19810;SDS011;10065;49.632;8.346;2022-09-28T02:15:41;0.93;;;0.50;;
19810;SDS011;10065;49.632;8.346;2022-09-28T02:18:11;1.60;;;0.60;;
19810;SDS011;10065;49.632;8.346;2022-09-28T02:20:39;2.17;;;0.60;;
19810;SDS011;10065;49.632;8.346;2022-09-28T02:23:12;1.00;;;0.50;;
19810;SDS011;10065;49.632;8.346;2022-09-28T02:25:43;4.30;;;0.50;;
19810;SDS011;10065;49.632;8.346;2022-09-28T02:28:16;1.77;;;0.60;;
19810;SDS011;10065;49.632;8.346;2022-09-28T02:30:44;1.30;;;0.53;;
19810;SDS011;10065;49.632;8.346;2022-09-28T02:33:12;0.97;;;0.30;;
19810;SDS011;10065;49.632;8.346;2022-09-28T02:35:44;1.80;;;0.50;;
19810;SDS011;10065;49.632;8.346;2022-09-28T02:38:13;1.10;;;0.43;;
19810;SDS011;10065;49.632;8.346;2022-09-28T02:40:42;1.33;;;0.40;;
19810;SDS011;10065;49.632;8.346;2022-09-28T02:43:15;1.40;;;0.47;;
19810;SDS011;10065;49.632;8.346;2022-09-28T02:45:54;2.63;;;0.70;;
19810;SDS011;10065;49.632;8.346;2022-09-28T02:48:30;2.40;;;0.50;;
19810;SDS011;10065;49.632;8.346;2022-09-28T02:51:26;1.83;;;0.50;;
19810;SDS011;10065;49.632;8.346;2022-09-28T02:54:16;7.77;;;0.60;;
19810;SDS011;10065;49.632;8.346;2022-09-28T02:57:01;1.37;;;0.60;;
19810;SDS011;10065;49.632;8.346;2022-09-28T02:59:47;2.57;;;0.57;;
19810;SDS011;10065;49.632;8.346;2022-09-28T03:02:22;1.80;;;0.50;;
19810;SDS011;10065;49.632;8.346;2022-09-28T03:04:58;1.13;;;0.40;;
19810;SDS011;10065;49.632;8.346;2022-09-28T03:07:34;1.30;;;0.57;;
19810;SDS011;10065;49.632;8.346;2022-09-28T03:10:07;1.70;;;0.80;;
19810;SDS011;10065;49.632;8.346;2022-09-28T03:12:43;3.23;;;0.73;;
19810;SDS011;10065;49.632;8.346;2022-09-28T03:15:19;1.43;;;0.70;;
19810;SDS011;10065;49.632;8.346;2022-09-28T03:17:48;2.60;;;0.77;;
19810;SDS011;10065;49.632;8.346;2022-09-28T03:20:16;2.70;;;0.80;;
19810;SDS011;10065;49.632;8.346;2022-09-28T03:22:44;4.67;;;1.00;;
19810;SDS011;10065;49.632;8.346;2022-09-28T03:25:32;3.97;;;0.90;;
19810;SDS011;10065;49.632;8.346;2022-09-28T03:28:00;2.57;;;0.97;;
19810;SDS011;10065;49.632;8.346;2022-09-28T03:30:29;6.07;;;1.30;;
19810;SDS011;10065;49.632;8.346;2022-09-28T03:32:57;6.50;;;2.30;;
19810;SDS011;10065;49.632;8.346;2022-09-28T03:35:25;4.10;;;1.20;;
19810;SDS011;10065;49.632;8.346;2022-09-28T03:37:53;4.10;;;1.20;;
19810;SDS011;10065;49.632;8.346;2022-09-28T03:40:22;2.97;;;1.20;;
19810;SDS011;10065;49.632;8.346;2022-09-28T03:42:50;5.20;;;1.30;;
19810;SDS011;10065;49.632;8.346;2022-09-28T03:45:19;2.67;;;1.07;;
19810;SDS011;10065;49.632;8.346;2022-09-28T03:47:48;2.47;;;1.13;;
19810;SDS011;10065;49.632;8.346;2022-09-28T03:50:15;3.13;;;1.20;;
19810;SDS011;10065;49.632;8.346;2022-09-28T03:52:43;4.97;;;1.47;;
19810;SDS011;10065;49.632;8.346;2022-09-28T03:55:10;4.07;;;1.40;;
19810;SDS011;10065;49.632;8.346;2022-09-28T03:57:38;3.17;;;1.30;;
19810;SDS011;10065;49.632;8.346;2022-09-28T04:00:06;3.30;;;1.50;;
19810;SDS011;10065;49.632;8.346;2022-09-28T04:02:35;5.47;;;1.50;;
19810;SDS011;10065;49.632;8.346;2022-09-28T04:05:04;4.80;;;1.53;;
19810;SDS011;10065;49.632;8.346;2022-09-28T04:07:32;3.77;;;1.80;;
19810;SDS011;10065;49.632;8.346;2022-09-28T04:10:00;4.77;;;1.70;;
19810;SDS011;10065;49.632;8.346;2022-09-28T04:12:27;4.77;;;1.40;;
19810;SDS011;10065;49.632;8.346;2022-09-28T04:14:55;7.03;;;1.97;;
19810;SDS011;10065;49.632;8.346;2022-09-28T04:17:23;3.93;;;1.60;;
19810;SDS011;10065;49.632;8.346;2022-09-28T04:19:50;6.20;;;1.90;;
19810;SDS011;10065;49.632;8.346;2022-09-28T04:22:19;5.50;;;1.90;;
19810;SDS011;10065;49.632;8.346;2022-09-28T04:24:48;5.47;;;1.57;;
19810;SDS011;10065;49.632;8.346;2022-09-28T04:27:16;5.23;;;1.70;;
19810;SDS011;10065;49.632;8.346;2022-09-28T04:30:01;7.00;;;2.23;;
19810;SDS011;10065;49.632;8.346;2022-09-28T04:32:30;3.77;;;2.03;;
19810;SDS011;10065;49.632;8.346;2022-09-28T04:34:57;5.53;;;1.70;;
19810;SDS011;10065;49.632;8.346;2022-09-28T04:37:26;3.97;;;1.70;;
19810;SDS011;10065;49.632;8.346;2022-09-28T04:39:56;4.90;;;2.13;;
19810;SDS011;10065;49.632;8.346;2022-09-28T04:42:24;4.27;;;2.07;;
19810;SDS011;10065;49.632;8.346;2022-09-28T04:44:51;3.87;;;2.17;;
19810;SDS011;10065;49.632;8.346;2022-09-28T04:47:20;5.07;;;1.60;;
19810;SDS011;10065;49.632;8.346;2022-09-28T04:49:48;5.27;;;1.90;;
19810;SDS011;10065;49.632;8.346;2022-09-28T04:52:15;5.50;;;2.07;;
19810;SDS011;10065;49.632;8.346;2022-09-28T04:54:45;6.00;;;2.17;;
19810;SDS011;10065;49.632;8.346;2022-09-28T04:57:13;4.83;;;2.13;;
19810;SDS011;10065;49.632;8.346;2022-09-28T04:59:40;3.43;;;1.93;;
19810;SDS011;10065;49.632;8.346;2022-09-28T05:02:08;6.77;;;2.20;;
19810;SDS011;10065;49.632;8.346;2022-09-28T05:04:35;8.57;;;2.30;;
19810;SDS011;10065;49.632;8.346;2022-09-28T05:07:03;5.00;;;2.53;;
19810;SDS011;10065;49.632;8.346;2022-09-28T05:09:31;5.00;;;2.33;;
19810;SDS011;10065;49.632;8.346;2022-09-28T05:12:05;5.97;;;2.40;;
19810;SDS011;10065;49.632;8.346;2022-09-28T05:14:34;4.93;;;2.30;;
19810;SDS011;10065;49.632;8.346;2022-09-28T05:17:02;7.63;;;2.37;;
19810;SDS011;10065;49.632;8.346;2022-09-28T05:19:29;6.57;;;2.20;;
19810;SDS011;10065;49.632;8.346;2022-09-28T05:21:58;6.47;;;2.60;;
19810;SDS011;10065;49.632;8.346;2022-09-28T05:24:29;5.27;;;2.20;;
19810;SDS011;10065;49.632;8.346;2022-09-28T05:26:57;5.23;;;2.20;;
19810;SDS011;10065;49.632;8.346;2022-09-28T05:29:26;5.10;;;1.97;;
19810;SDS011;10065;49.632;8.346;2022-09-28T05:31:57;4.93;;;2.10;;
19810;SDS011;10065;49.632;8.346;2022-09-28T05:34:27;4.60;;;1.80;;
19810;SDS011;10065;49.632;8.346;2022-09-28T05:36:54;4.93;;;2.07;;
19810;SDS011;10065;49.632;8.346;2022-09-28T05:39:22;11.73;;;2.10;;
19810;SDS011;10065;49.632;8.346;2022-09-28T05:41:50;7.37;;;2.10;;
19810;SDS011;10065;49.632;8.346;2022-09-28T05:44:17;10.33;;;2.73;;
19810;SDS011;10065;49.632;8.346;2022-09-28T05:46:46;4.10;;;2.30;;
19810;SDS011;10065;49.632;8.346;2022-09-28T05:49:14;4.07;;;2.00;;
19810;SDS011;10065;49.632;8.346;2022-09-28T05:51:42;6.20;;;2.63;;
19810;SDS011;10065;49.632;8.346;2022-09-28T05:54:09;5.30;;;2.30;;
19810;SDS011;10065;49.632;8.346;2022-09-28T05:56:37;6.13;;;2.40;;
19810;SDS011;10065;49.632;8.346;2022-09-28T05:59:05;5.07;;;2.13;;
19810;SDS011;10065;49.632;8.346;2022-09-28T06:01:32;7.13;;;2.10;;
19810;SDS011;10065;49.632;8.346;2022-09-28T06:04:01;4.37;;;2.10;;
19810;SDS011;10065;49.632;8.346;2022-09-28T06:06:29;9.60;;;2.53;;
19810;SDS011;10065;49.632;8.346;2022-09-28T06:08:57;4.33;;;2.03;;
19810;SDS011;10065;49.632;8.346;2022-09-28T06:11:24;5.60;;;2.60;;
19810;SDS011;10065;49.632;8.346;2022-09-28T06:13:53;4.87;;;2.00;;
19810;SDS011;10065;49.632;8.346;2022-09-28T06:16:21;5.13;;;2.00;;
19810;SDS011;10065;49.632;8.346;2022-09-28T06:18:49;7.80;;;2.30;;
19810;SDS011;10065;49.632;8.346;2022-09-28T06:21:18;7.40;;;2.37;;
19810;SDS011;10065;49.632;8.346;2022-09-28T06:23:45;5.43;;;2.37;;
19810;SDS011;10065;49.632;8.346;2022-09-28T06:26:15;5.07;;;2.40;;
19810;SDS011;10065;49.632;8.346;2022-09-28T06:28:43;6.87;;;2.80;;
19810;SDS011;10065;49.632;8.346;2022-09-28T06:31:10;5.40;;;2.10;;
19810;SDS011;10065;49.632;8.346;2022-09-28T06:33:38;6.90;;;2.37;;
19810;SDS011;10065;49.632;8.346;2022-09-28T06:36:07;5.87;;;2.10;;
19810;SDS011;10065;49.632;8.346;2022-09-28T06:38:36;9.27;;;2.13;;
19810;SDS011;10065;49.632;8.346;2022-09-28T06:41:04;6.13;;;1.80;;
19810;SDS011;10065;49.632;8.346;2022-09-28T06:43:32;4.23;;;2.00;;
19810;SDS011;10065;49.632;8.346;2022-09-28T06:46:00;4.33;;;1.90;;
19810;SDS011;10065;49.632;8.346;2022-09-28T06:48:28;4.80;;;1.40;;
19810;SDS011;10065;49.632;8.346;2022-09-28T06:50:58;3.97;;;1.20;;
19810;SDS011;10065;49.632;8.346;2022-09-28T06:53:27;4.53;;;1.20;;
19810;SDS011;10065;49.632;8.346;2022-09-28T06:55:56;4.07;;;1.00;;
19810;SDS011;10065;49.632;8.346;2022-09-28T06:58:25;2.83;;;1.00;;
19810;SDS011;10065;49.632;8.346;2022-09-28T07:00:54;5.37;;;1.27;;
19810;SDS011;10065;49.632;8.346;2022-09-28T07:03:25;6.47;;;1.20;;
19810;SDS011;10065;49.632;8.346;2022-09-28T07:05:54;4.73;;;0.93;;
19810;SDS011;10065;49.632;8.346;2022-09-28T07:08:23;7.37;;;1.47;;
19810;SDS011;10065;49.632;8.346;2022-09-28T07:10:52;5.67;;;1.27;;
19810;SDS011;10065;49.632;8.346;2022-09-28T07:13:23;5.03;;;1.40;;
19810;SDS011;10065;49.632;8.346;2022-09-28T07:16:11;6.87;;;1.57;;
19810;SDS011;10065;49.632;8.346;2022-09-28T07:18:39;4.50;;;1.43;;
19810;SDS011;10065;49.632;8.346;2022-09-28T07:21:07;5.00;;;1.50;;
19810;SDS011;10065;49.632;8.346;2022-09-28T07:23:47;5.20;;;1.53;;
19810;SDS011;10065;49.632;8.346;2022-09-28T07:26:19;4.10;;;1.07;;
19810;SDS011;10065;49.632;8.346;2022-09-28T07:28:51;7.97;;;1.30;;
19810;SDS011;10065;49.632;8.346;2022-09-28T07:31:21;5.40;;;1.87;;
19810;SDS011;10065;49.632;8.346;2022-09-28T07:33:50;4.37;;;1.27;;
19810;SDS011;10065;49.632;8.346;2022-09-28T07:36:19;2.93;;;1.27;;
19810;SDS011;10065;49.632;8.346;2022-09-28T07:38:47;5.17;;;2.17;;
19810;SDS011;10065;49.632;8.346;2022-09-28T07:41:15;6.97;;;1.77;;
19810;SDS011;10065;49.632;8.346;2022-09-28T07:43:47;3.63;;;1.27;;
19810;SDS011;10065;49.632;8.346;2022-09-28T07:46:17;6.00;;;1.50;;
19810;SDS011;10065;49.632;8.346;2022-09-28T07:48:46;5.80;;;1.57;;
19810;SDS011;10065;49.632;8.346;2022-09-28T07:51:15;2.87;;;1.30;;
19810;SDS011;10065;49.632;8.346;2022-09-28T07:53:45;5.77;;;1.63;;
19810;SDS011;10065;49.632;8.346;2022-09-28T07:56:14;7.83;;;1.60;;
19810;SDS011;10065;49.632;8.346;2022-09-28T07:58:43;4.43;;;1.43;;
19810;SDS011;10065;49.632;8.346;2022-09-28T08:01:14;9.63;;;1.73;;
19810;SDS011;10065;49.632;8.346;2022-09-28T08:03:43;4.93;;;1.53;;
19810;SDS011;10065;49.632;8.346;2022-09-28T08:06:13;6.00;;;1.63;;
19810;SDS011;10065;49.632;8.346;2022-09-28T08:08:42;3.97;;;1.60;;
19810;SDS011;10065;49.632;8.346;2022-09-28T08:11:11;11.60;;;1.67;;
19810;SDS011;10065;49.632;8.346;2022-09-28T08:13:39;5.67;;;2.20;;
19810;SDS011;10065;49.632;8.346;2022-09-28T08:16:08;4.40;;;1.80;;
19810;SDS011;10065;49.632;8.346;2022-09-28T08:18:36;7.97;;;1.77;;
19810;SDS011;10065;49.632;8.346;2022-09-28T08:21:05;6.20;;;2.07;;
19810;SDS011;10065;49.632;8.346;2022-09-28T08:23:50;3.53;;;1.30;;
19810;SDS011;10065;49.632;8.346;2022-09-28T08:26:18;3.47;;;1.30;;
19810;SDS011;10065;49.632;8.346;2022-09-28T08:28:46;2.87;;;1.00;;
19810;SDS011;10065;49.632;8.346;2022-09-28T08:31:14;3.90;;;1.20;;
19810;SDS011;10065;49.632;8.346;2022-09-28T08:33:42;8.67;;;1.70;;
19810;SDS011;10065;49.632;8.346;2022-09-28T08:36:11;3.17;;;0.90;;
19810;SDS011;10065;49.632;8.346;2022-09-28T08:38:38;6.17;;;0.80;;
19810;SDS011;10065;49.632;8.346;2022-09-28T08:41:12;3.97;;;1.00;;
19810;SDS011;10065;49.632;8.346;2022-09-28T08:43:50;8.33;;;1.27;;
19810;SDS011;10065;49.632;8.346;2022-09-28T08:46:28;4.17;;;1.20;;
19810;SDS011;10065;49.632;8.346;2022-09-28T08:49:00;2.30;;;0.70;;
19810;SDS011;10065;49.632;8.346;2022-09-28T08:51:56;3.87;;;1.00;;
19810;SDS011;10065;49.632;8.346;2022-09-28T08:54:29;3.83;;;0.90;;
19810;SDS011;10065;49.632;8.346;2022-09-28T08:57:04;4.37;;;1.00;;
19810;SDS011;10065;49.632;8.346;2022-09-28T08:59:41;5.93;;;1.03;;
19810;SDS011;10065;49.632;8.346;2022-09-28T09:02:14;2.50;;;0.73;;
19810;SDS011;10065;49.632;8.346;2022-09-28T09:04:45;1.93;;;0.97;;
19810;SDS011;10065;49.632;8.346;2022-09-28T09:07:21;4.03;;;0.73;;
19810;SDS011;10065;49.632;8.346;2022-09-28T09:10:01;6.67;;;1.43;;
19810;SDS011;10065;49.632;8.346;2022-09-28T09:12:39;4.93;;;0.70;;
19810;SDS011;10065;49.632;8.346;2022-09-28T09:15:18;3.83;;;0.80;;
19810;SDS011;10065;49.632;8.346;2022-09-28T09:17:57;4.23;;;0.93;;
19810;SDS011;10065;49.632;8.346;2022-09-28T09:20:38;6.70;;;0.93;;
19810;SDS011;10065;49.632;8.346;2022-09-28T09:23:15;1.27;;;0.50;;
19810;SDS011;10065;49.632;8.346;2022-09-28T09:25:47;1.77;;;0.60;;
19810;SDS011;10065;49.632;8.346;2022-09-28T09:28:28;4.93;;;0.90;;
19810;SDS011;10065;49.632;8.346;2022-09-28T09:31:11;3.40;;;0.53;;
19810;SDS011;10065;49.632;8.346;2022-09-28T09:34:02;4.10;;;0.73;;
19810;SDS011;10065;49.632;8.346;2022-09-28T09:36:44;1.93;;;0.60;;
19810;SDS011;10065;49.632;8.346;2022-09-28T09:39:30;2.30;;;0.90;;
19810;SDS011;10065;49.632;8.346;2022-09-28T09:42:10;6.23;;;1.07;;
19810;SDS011;10065;49.632;8.346;2022-09-28T09:44:55;2.97;;;1.10;;
19810;SDS011;10065;49.632;8.346;2022-09-28T09:47:34;3.93;;;1.10;;
19810;SDS011;10065;49.632;8.346;2022-09-28T09:50:09;5.03;;;0.97;;
19810;SDS011;10065;49.632;8.346;2022-09-28T09:52:46;2.83;;;0.97;;
19810;SDS011;10065;49.632;8.346;2022-09-28T09:55:23;4.47;;;1.87;;
19810;SDS011;10065;49.632;8.346;2022-09-28T09:57:56;4.37;;;1.30;;
19810;SDS011;10065;49.632;8.346;2022-09-28T10:00:31;3.60;;;1.37;;
19810;SDS011;10065;49.632;8.346;2022-09-28T10:02:59;3.90;;;1.00;;
19810;SDS011;10065;49.632;8.346;2022-09-28T10:05:28;3.23;;;1.03;;
19810;SDS011;10065;49.632;8.346;2022-09-28T10:07:59;5.17;;;0.70;;
19810;SDS011;10065;49.632;8.346;2022-09-28T10:10:32;2.20;;;0.83;;
19810;SDS011;10065;49.632;8.346;2022-09-28T10:13:01;3.23;;;0.90;;
19810;SDS011;10065;49.632;8.346;2022-09-28T10:15:30;3.77;;;0.90;;
19810;SDS011;10065;49.632;8.346;2022-09-28T10:18:01;2.20;;;0.90;;
19810;SDS011;10065;49.632;8.346;2022-09-28T10:20:33;5.77;;;1.40;;
19810;SDS011;10065;49.632;8.346;2022-09-28T10:23:05;2.63;;;1.07;;
19810;SDS011;10065;49.632;8.346;2022-09-28T10:25:40;2.33;;;0.60;;
19810;SDS011;10065;49.632;8.346;2022-09-28T10:28:13;4.33;;;1.07;;
19810;SDS011;10065;49.632;8.346;2022-09-28T10:30:45;3.80;;;0.97;;
19810;SDS011;10065;49.632;8.346;2022-09-28T10:36:03;2.67;;;0.70;;
19810;SDS011;10065;49.632;8.346;2022-09-28T10:38:33;2.90;;;0.70;;
19810;SDS011;10065;49.632;8.346;2022-09-28T10:41:07;3.07;;;0.63;;
19810;SDS011;10065;49.632;8.346;2022-09-28T10:43:36;3.00;;;0.70;;
19810;SDS011;10065;49.632;8.346;2022-09-28T10:46:06;3.10;;;0.90;;
19810;SDS011;10065;49.632;8.346;2022-09-28T10:48:44;2.37;;;0.70;;
19810;SDS011;10065;49.632;8.346;2022-09-28T10:51:16;2.73;;;0.67;;
19810;SDS011;10065;49.632;8.346;2022-09-28T10:53:56;3.70;;;1.00;;
19810;SDS011;10065;49.632;8.346;2022-09-28T10:56:27;2.40;;;0.83;;
19810;SDS011;10065;49.632;8.346;2022-09-28T10:58:57;3.87;;;0.80;;
19810;SDS011;10065;49.632;8.346;2022-09-28T11:01:29;3.10;;;0.67;;
19810;SDS011;10065;49.632;8.346;2022-09-28T11:04:00;3.57;;;1.30;;
19810;SDS011;10065;49.632;8.346;2022-09-28T11:06:30;2.50;;;0.70;;
19810;SDS011;10065;49.632;8.346;2022-09-28T11:09:02;3.00;;;0.70;;
19810;SDS011;10065;49.632;8.346;2022-09-28T11:11:39;7.80;;;0.80;;
19810;SDS011;10065;49.632;8.346;2022-09-28T11:14:16;5.03;;;1.10;;
19810;SDS011;10065;49.632;8.346;2022-09-28T11:19:41;3.67;;;1.10;;
19810;SDS011;10065;49.632;8.346;2022-09-28T11:22:18;4.90;;;0.70;;
19810;SDS011;10065;49.632;8.346;2022-09-28T11:24:47;2.93;;;0.90;;
19810;SDS011;10065;49.632;8.346;2022-09-28T11:27:20;4.57;;;0.60;;
19810;SDS011;10065;49.632;8.346;2022-09-28T11:29:52;2.07;;;0.60;;
19810;SDS011;10065;49.632;8.346;2022-09-28T11:32:23;2.60;;;0.80;;
19810;SDS011;10065;49.632;8.346;2022-09-28T11:34:55;2.50;;;0.90;;
19810;SDS011;10065;49.632;8.346;2022-09-28T11:37:39;2.03;;;0.70;;
19810;SDS011;10065;49.632;8.346;2022-09-28T11:40:22;2.93;;;0.70;;
19810;SDS011;10065;49.632;8.346;2022-09-28T11:43:01;1.13;;;0.43;;
19810;SDS011;10065;49.632;8.346;2022-09-28T11:45:42;2.17;;;0.70;;
19810;SDS011;10065;49.632;8.346;2022-09-28T11:48:20;4.87;;;0.63;;
19810;SDS011;10065;49.632;8.346;2022-09-28T11:50:52;3.30;;;0.63;;
19810;SDS011;10065;49.632;8.346;2022-09-28T11:53:26;4.10;;;0.80;;
19810;SDS011;10065;49.632;8.346;2022-09-28T11:56:02;1.87;;;0.60;;
19810;SDS011;10065;49.632;8.346;2022-09-28T11:58:36;2.73;;;0.80;;
19810;SDS011;10065;49.632;8.346;2022-09-28T12:01:12;2.87;;;0.50;;
19810;SDS011;10065;49.632;8.346;2022-09-28T12:03:49;7.50;;;1.07;;
19810;SDS011;10065;49.632;8.346;2022-09-28T12:06:22;2.03;;;0.60;;
19810;SDS011;10065;49.632;8.346;2022-09-28T12:08:57;1.40;;;0.50;;
19810;SDS011;10065;49.632;8.346;2022-09-28T12:11:34;2.60;;;0.70;;
19810;SDS011;10065;49.632;8.346;2022-09-28T12:14:09;3.33;;;1.00;;
19810;SDS011;10065;49.632;8.346;2022-09-28T12:16:45;2.13;;;0.57;;
19810;SDS011;10065;49.632;8.346;2022-09-28T12:19:33;3.87;;;0.80;;
19810;SDS011;10065;49.632;8.346;2022-09-28T12:22:09;2.63;;;0.50;;
19810;SDS011;10065;49.632;8.346;2022-09-28T12:24:44;3.17;;;0.70;;
19810;SDS011;10065;49.632;8.346;2022-09-28T12:27:14;1.27;;;0.50;;
19810;SDS011;10065;49.632;8.346;2022-09-28T12:29:50;2.43;;;0.47;;
19810;SDS011;10065;49.632;8.346;2022-09-28T12:32:25;9.23;;;1.20;;
19810;SDS011;10065;49.632;8.346;2022-09-28T12:34:57;2.83;;;0.70;;
19810;SDS011;10065;49.632;8.346;2022-09-28T12:37:28;3.30;;;0.80;;
19810;SDS011;10065;49.632;8.346;2022-09-28T12:40:22;3.87;;;0.90;;
19810;SDS011;10065;49.632;8.346;2022-09-28T12:43:05;2.97;;;0.60;;
19810;SDS011;10065;49.632;8.346;2022-09-28T12:45:54;1.90;;;0.60;;
19810;SDS011;10065;49.632;8.346;2022-09-28T12:48:42;4.70;;;0.77;;
19810;SDS011;10065;49.632;8.346;2022-09-28T12:51:42;2.70;;;0.70;;
19810;SDS011;10065;49.632;8.346;2022-09-28T12:57:27;2.37;;;0.60;;
19810;SDS011;10065;49.632;8.346;2022-09-28T13:00:03;1.23;;;0.63;;
19810;SDS011;10065;49.632;8.346;2022-09-28T13:08:44;2.40;;;0.60;;
19810;SDS011;10065;49.632;8.346;2022-09-28T13:11:21;3.07;;;0.77;;
19810;SDS011;10065;49.632;8.346;2022-09-28T13:14:01;3.27;;;0.50;;
19810;SDS011;10065;49.632;8.346;2022-09-28T13:16:46;3.23;;;0.63;;
19810;SDS011;10065;49.632;8.346;2022-09-28T13:19:30;3.43;;;0.80;;
19810;SDS011;10065;49.632;8.346;2022-09-28T13:22:06;3.30;;;0.97;;
19810;SDS011;10065;49.632;8.346;2022-09-28T13:24:44;2.57;;;0.70;;
19810;SDS011;10065;49.632;8.346;2022-09-28T13:27:14;2.63;;;0.90;;
19810;SDS011;10065;49.632;8.346;2022-09-28T13:29:45;2.30;;;0.60;;
19810;SDS011;10065;49.632;8.346;2022-09-28T13:32:16;1.23;;;0.60;;
19810;SDS011;10065;49.632;8.346;2022-09-28T13:34:47;3.83;;;0.83;;
19810;SDS011;10065;49.632;8.346;2022-09-28T13:37:18;6.77;;;0.90;;
19810;SDS011;10065;49.632;8.346;2022-09-28T13:39:50;2.07;;;0.80;;
19810;SDS011;10065;49.632;8.346;2022-09-28T13:42:22;3.40;;;0.80;;
19810;SDS011;10065;49.632;8.346;2022-09-28T13:48:11;3.37;;;0.60;;
19810;SDS011;10065;49.632;8.346;2022-09-28T13:50:47;7.60;;;1.10;;
19810;SDS011;10065;49.632;8.346;2022-09-28T13:53:30;2.50;;;0.83;;
19810;SDS011;10065;49.632;8.346;2022-09-28T13:56:14;1.90;;;0.70;;
19810;SDS011;10065;49.632;8.346;2022-09-28T13:58:51;2.47;;;0.83;;
19810;SDS011;10065;49.632;8.346;2022-09-28T14:01:25;3.20;;;0.60;;
19810;SDS011;10065;49.632;8.346;2022-09-28T14:04:08;2.40;;;0.63;;
19810;SDS011;10065;49.632;8.346;2022-09-28T14:06:42;2.40;;;0.50;;
19810;SDS011;10065;49.632;8.346;2022-09-28T14:18:15;1.73;;;0.70;;
19810;SDS011;10065;49.632;8.346;2022-09-28T14:20:53;3.43;;;0.90;;
19810;SDS011;10065;49.632;8.346;2022-09-28T14:23:43;4.43;;;1.00;;
19810;SDS011;10065;49.632;8.346;2022-09-28T14:29:25;2.83;;;0.80;;
19810;SDS011;10065;49.632;8.346;2022-09-28T14:31:55;2.23;;;0.97;;
19810;SDS011;10065;49.632;8.346;2022-09-28T14:34:24;3.67;;;0.87;;
19810;SDS011;10065;49.632;8.346;2022-09-28T14:37:00;2.20;;;0.83;;
19810;SDS011;10065;49.632;8.346;2022-09-28T14:39:49;2.77;;;0.63;;
19810;SDS011;10065;49.632;8.346;2022-09-28T14:42:34;2.30;;;0.53;;
19810;SDS011;10065;49.632;8.346;2022-09-28T14:45:18;1.97;;;0.80;;
19810;SDS011;10065;49.632;8.346;2022-09-28T14:48:09;4.47;;;0.83;;
19810;SDS011;10065;49.632;8.346;2022-09-28T14:50:40;3.03;;;0.70;;
19810;SDS011;10065;49.632;8.346;2022-09-28T14:53:09;1.83;;;0.60;;
19810;SDS011;10065;49.632;8.346;2022-09-28T14:55:44;4.03;;;0.77;;
19810;SDS011;10065;49.632;8.346;2022-09-28T14:58:17;2.17;;;0.70;;
19810;SDS011;10065;49.632;8.346;2022-09-28T15:00:59;2.87;;;0.70;;
19810;SDS011;10065;49.632;8.346;2022-09-28T15:03:29;1.27;;;0.50;;
19810;SDS011;10065;49.632;8.346;2022-09-28T15:05:59;0.70;;;0.43;;
19810;SDS011;10065;49.632;8.346;2022-09-28T15:08:34;3.63;;;0.80;;
19810;SDS011;10065;49.632;8.346;2022-09-28T15:11:05;0.70;;;0.43;;
19810;SDS011;10065;49.632;8.346;2022-09-28T15:13:39;1.63;;;0.60;;
19810;SDS011;10065;49.632;8.346;2022-09-28T15:16:09;2.23;;;0.50;;
19810;SDS011;10065;49.632;8.346;2022-09-28T15:21:38;2.43;;;0.70;;
19810;SDS011;10065;49.632;8.346;2022-09-28T15:24:22;5.30;;;0.70;;
19810;SDS011;10065;49.632;8.346;2022-09-28T15:26:52;1.70;;;0.60;;
19810;SDS011;10065;49.632;8.346;2022-09-28T15:29:20;3.10;;;1.10;;
19810;SDS011;10065;49.632;8.346;2022-09-28T15:31:49;3.07;;;1.20;;
19810;SDS011;10065;49.632;8.346;2022-09-28T15:34:26;3.67;;;0.80;;
19810;SDS011;10065;49.632;8.346;2022-09-28T15:37:14;1.97;;;0.63;;
19810;SDS011;10065;49.632;8.346;2022-09-28T15:39:47;2.97;;;0.80;;
19810;SDS011;10065;49.632;8.346;2022-09-28T15:42:17;6.00;;;0.90;;
19810;SDS011;10065;49.632;8.346;2022-09-28T15:44:58;1.67;;;0.60;;
19810;SDS011;10065;49.632;8.346;2022-09-28T15:47:33;1.67;;;0.60;;
19810;SDS011;10065;49.632;8.346;2022-09-28T15:50:05;1.70;;;0.70;;
19810;SDS011;10065;49.632;8.346;2022-09-28T15:52:51;1.40;;;0.50;;
19810;SDS011;10065;49.632;8.346;2022-09-28T15:55:22;2.83;;;0.73;;
19810;SDS011;10065;49.632;8.346;2022-09-28T15:58:12;1.67;;;0.60;;